Time;durP1;ratioP1;P1;durP2;ratioP2;P2;SDS_P1;SDS_P2;PMS_P1;PMS_P2;Temp;Humidity;BMP_temperature;BMP_pressure;BME280_temperature;BME280_humidity;BME280_pressure;Samples;Min_cycle;Max_cycle;Signal;HPM_P1;HPM_P2
2023/07/06 00:00:00;;;;;;;8.20;4.90;;;;;;;18.46;56.22;101476.31;4962744;28;123496;-72
2023/07/06 00:02:38;;;;;;;7.55;5.63;;;;;;;18.44;56.11;101485.41;4978420;28;124448;-72
2023/07/06 00:05:06;;;;;;;7.47;5.55;;;;;;;18.41;56.41;101483.78;4966671;28;109522;-72
2023/07/06 00:07:35;;;;;;;10.18;5.53;;;;;;;18.38;56.58;101477.78;4958882;28;109008;-72
2023/07/06 00:10:05;;;;;;;8.15;4.85;;;;;;;18.36;56.30;101483.25;4971394;28;123879;-72
2023/07/06 00:12:34;;;;;;;7.93;5.35;;;;;;;18.34;56.64;101482.50;4973629;28;124302;-72
2023/07/06 00:15:05;;;;;;;9.38;5.38;;;;;;;18.33;56.88;101478.09;4971231;28;109511;-71
2023/07/06 00:17:33;;;;;;;8.88;5.28;;;;;;;18.32;56.73;101480.88;4973675;28;108826;-72
2023/07/06 00:20:00;;;;;;;9.73;5.50;;;;;;;18.32;56.92;101480.88;4971863;28;124154;-72
2023/07/06 00:22:27;;;;;;;8.95;5.57;;;;;;;18.30;56.65;101483.66;4974097;28;123778;-72
2023/07/06 00:24:57;;;;;;;9.07;5.22;;;;;;;18.28;56.76;101480.22;4971260;28;109178;-73
2023/07/06 00:27:25;;;;;;;9.82;5.18;;;;;;;18.24;56.96;101479.56;4974186;28;108652;-73
2023/07/06 00:30:40;;;;;;;12.63;5.10;;;;;;;18.24;56.91;101492.13;4971562;28;124901;-72
2023/07/06 00:32:51;;;;;;;10.23;5.38;;;;;;;18.21;56.76;101486.97;4971223;28;122918;-72
2023/07/06 00:35:20;;;;;;;10.57;4.65;;;;;;;18.19;56.90;101486.22;4978170;28;110469;-72
2023/07/06 00:37:49;;;;;;;7.97;5.32;;;;;;;18.17;57.05;101488.13;4977343;28;108872;-72
2023/07/06 00:40:17;;;;;;;7.97;4.80;;;;;;;18.16;57.07;101491.75;4972551;28;123569;-72
2023/07/06 00:42:45;;;;;;;7.53;4.78;;;;;;;18.15;56.88;101495.41;4972364;28;122633;-72
2023/07/06 00:45:15;;;;;;;8.82;5.15;;;;;;;18.14;57.03;101489.22;4964855;28;109722;-72
2023/07/06 00:47:56;;;;;;;8.52;5.15;;;;;;;18.14;57.00;101488.31;4937450;28;107834;-72
2023/07/06 00:50:27;;;;;;;7.60;4.90;;;;;;;18.13;56.69;101486.63;4961752;28;122845;-72
2023/07/06 00:53:04;;;;;;;9.82;4.72;;;;;;;18.11;56.95;101489.41;4972766;28;123846;-72
2023/07/06 00:55:42;;;;;;;9.20;5.10;;;;;;;18.09;56.99;101492.19;4971752;28;109078;-72
2023/07/06 00:58:36;;;;;;;6.95;4.72;;;;;;;18.06;56.89;101489.72;4951082;28;109007;-72
2023/07/06 01:01:07;;;;;;;7.68;4.85;;;;;;;18.03;56.83;101481.88;4953656;28;124199;-72
2023/07/06 01:03:43;;;;;;;7.32;4.75;;;;;;;18.00;56.76;101486.56;4965553;28;125122;-72
2023/07/06 01:06:47;;;;;;;8.30;5.30;;;;;;;17.95;56.81;101494.94;4955179;28;109573;-72
2023/07/06 01:09:17;;;;;;;7.30;4.55;;;;;;;17.92;56.62;101487.09;4963177;28;108994;-72
2023/07/06 01:11:45;;;;;;;7.22;4.97;;;;;;;17.89;56.83;101485.47;4974644;28;123782;-71
2023/07/06 01:14:13;;;;;;;6.78;4.72;;;;;;;17.86;56.93;101484.81;4958490;28;122285;-71
2023/07/06 01:17:04;;;;;;;9.48;4.60;;;;;;;17.82;56.78;101480.56;4969634;28;108088;-71
2023/07/06 01:19:50;;;;;;;7.57;4.55;;;;;;;17.78;56.99;101485.28;4976085;28;108117;-70
2023/07/06 01:22:29;;;;;;;7.80;4.55;;;;;;;17.74;56.91;101474.84;4973128;28;124511;-70
2023/07/06 01:25:34;;;;;;;5.95;4.47;;;;;;;17.71;56.78;101484.81;4974854;28;123187;-70
2023/07/06 01:28:40;;;;;;;7.30;4.45;;;;;;;17.67;56.84;101483.28;4974421;28;109660;-69
2023/07/06 01:31:28;;;;;;;4.93;3.87;;;;;;;17.62;56.90;101482.72;4975206;28;110574;-70
2023/07/06 01:34:17;;;;;;;7.53;3.83;;;;;;;17.59;56.82;101482.91;4963129;28;123912;-70
2023/07/06 01:36:53;;;;;;;6.90;4.10;;;;;;;17.56;56.88;101488.47;4957828;28;123153;-70
2023/07/06 01:39:24;;;;;;;7.45;4.47;;;;;;;17.54;56.84;101482.38;4974575;28;108784;-70
2023/07/06 01:42:07;;;;;;;6.25;4.43;;;;;;;17.54;56.94;101484.16;4970412;28;109027;-70
2023/07/06 01:44:36;;;;;;;7.72;3.70;;;;;;;17.53;56.98;101483.31;4967041;28;124614;-70
2023/07/06 01:47:04;;;;;;;9.10;3.78;;;;;;;17.51;56.78;101485.22;4973923;28;124071;-71
2023/07/06 01:49:33;;;;;;;6.43;3.65;;;;;;;17.48;56.98;101490.81;4975318;28;109435;-71
2023/07/06 01:52:15;;;;;;;6.78;3.90;;;;;;;17.45;56.84;101488.31;4983292;28;109268;-72
2023/07/06 01:55:11;;;;;;;7.25;3.72;;;;;;;17.42;56.68;101491.16;4973846;28;123277;-71
2023/07/06 01:57:48;;;;;;;7.85;3.50;;;;;;;17.38;56.64;101500.34;4942479;28;123060;-71
2023/07/06 02:00:30;;;;;;;7.65;4.00;;;;;;;17.35;56.50;101487.16;4980605;28;109184;-71
2023/07/06 02:03:01;;;;;;;6.60;3.78;;;;;;;17.32;56.72;101491.75;4965604;28;109828;-71
2023/07/06 02:05:28;;;;;;;7.00;3.30;;;;;;;17.30;56.71;101488.31;4955598;28;123818;-71
2023/07/06 02:07:55;;;;;;;6.32;3.40;;;;;;;17.27;56.61;101483.16;4974743;28;123651;-71
2023/07/06 02:10:23;;;;;;;6.93;3.45;;;;;;;17.25;56.70;101490.44;4988273;28;109172;-71
2023/07/06 02:12:50;;;;;;;6.63;3.28;;;;;;;17.22;56.69;101487.94;4982915;28;107264;-71
2023/07/06 02:15:21;;;;;;;6.70;3.42;;;;;;;17.21;56.71;101482.69;4958411;28;123717;-71
2023/07/06 02:17:49;;;;;;;6.45;3.38;;;;;;;17.20;56.64;101480.97;4955440;28;123538;-71
2023/07/06 02:20:19;;;;;;;8.40;3.30;;;;;;;17.19;56.64;101485.44;4961219;28;109245;-71
2023/07/06 02:22:46;;;;;;;6.00;3.50;;;;;;;17.19;56.80;101479.25;4974751;28;108790;-71
2023/07/06 02:25:14;;;;;;;6.60;3.20;;;;;;;17.18;56.89;101482.88;4973794;28;123087;-71
2023/07/06 02:27:41;;;;;;;6.47;3.42;;;;;;;17.17;56.80;101486.50;4972653;28;124716;-71
2023/07/06 02:30:09;;;;;;;7.10;3.13;;;;;;;17.16;56.84;101480.31;4974105;28;109209;-71
2023/07/06 02:32:39;;;;;;;5.75;3.28;;;;;;;17.16;56.90;101480.31;4987334;28;108723;-71
2023/07/06 02:35:09;;;;;;;9.43;3.67;;;;;;;17.15;56.71;101478.56;4971832;28;123973;-71
2023/07/06 02:37:38;;;;;;;7.97;3.22;;;;;;;17.13;57.08;101480.50;4972367;28;123963;-71
2023/07/06 02:40:11;;;;;;;7.70;3.53;;;;;;;17.10;57.03;101483.34;4974096;28;108213;-71
2023/07/06 02:42:42;;;;;;;5.35;3.25;;;;;;;17.08;56.86;101478.13;4974716;28;107943;-71
2023/07/06 02:45:10;;;;;;;6.00;3.38;;;;;;;17.07;56.85;101480.88;4972223;28;123472;-71
2023/07/06 02:47:40;;;;;;;8.20;3.13;;;;;;;17.07;56.90;101486.22;4972430;28;123814;-71
2023/07/06 02:50:11;;;;;;;7.00;3.22;;;;;;;17.06;56.82;101487.19;4960487;28;109071;-71
2023/07/06 02:52:42;;;;;;;7.20;3.40;;;;;;;17.03;56.95;101490.06;4960541;28;109048;-73
2023/07/06 02:55:10;;;;;;;9.30;3.55;;;;;;;17.00;56.80;101484.88;4971990;28;124984;-71
2023/07/06 02:57:40;;;;;;;7.85;3.55;;;;;;;16.98;57.00;101482.31;4974000;28;123819;-71
2023/07/06 03:00:16;;;;;;;4.68;3.35;;;;;;;16.96;57.06;101478.00;4972897;28;110059;-71
2023/07/06 03:02:44;;;;;;;5.40;3.17;;;;;;;16.95;56.92;101486.97;4983426;28;108589;-71
2023/07/06 03:05:11;;;;;;;4.85;3.05;;;;;;;16.95;57.05;101481.63;4990864;28;123148;-71
2023/07/06 03:07:40;;;;;;;9.25;3.85;;;;;;;16.93;56.82;101474.56;4965047;28;123505;-71
2023/07/06 03:10:09;;;;;;;5.57;3.80;;;;;;;16.94;56.89;101480.78;4974070;28;110489;-71
2023/07/06 03:12:37;;;;;;;7.88;3.53;;;;;;;16.91;56.93;101483.63;4985769;28;109289;-71
2023/07/06 03:15:10;;;;;;;6.45;3.25;;;;;;;16.89;56.98;101481.03;4972245;28;125003;-71
2023/07/06 03:17:39;;;;;;;7.65;3.50;;;;;;;16.88;56.91;101484.69;4985264;28;123454;-70
2023/07/06 03:20:15;;;;;;;7.10;4.10;;;;;;;16.86;56.74;101483.94;4974355;28;109299;-70
2023/07/06 03:22:45;;;;;;;5.85;3.53;;;;;;;16.84;56.85;101491.19;4972253;28;108554;-70
2023/07/06 03:25:26;;;;;;;5.45;3.58;;;;;;;16.82;56.83;101493.09;4971281;28;124134;-70
2023/07/06 03:27:54;;;;;;;6.75;3.25;;;;;;;16.80;56.90;101488.75;4972531;28;124315;-70
2023/07/06 03:30:29;;;;;;;5.85;3.67;;;;;;;16.80;57.13;101504.78;4973281;28;108230;-70
2023/07/06 03:33:00;;;;;;;6.25;3.00;;;;;;;16.77;56.97;101494.28;4976339;28;108999;-70
2023/07/06 03:35:31;;;;;;;5.82;2.85;;;;;;;16.75;57.01;101507.75;4977606;28;123656;-69
2023/07/06 03:37:59;;;;;;;7.60;3.42;;;;;;;16.72;57.07;101507.94;4959614;28;123893;-69
2023/07/06 03:40:29;;;;;;;8.43;3.65;;;;;;;16.71;57.15;101506.22;4972868;28;109568;-70
2023/07/06 03:42:57;;;;;;;6.93;3.25;;;;;;;16.71;57.11;101506.22;4972423;28;108325;-70
2023/07/06 03:45:25;;;;;;;9.57;3.58;;;;;;;16.69;57.28;101513.50;4951644;28;123264;-70
2023/07/06 03:47:52;;;;;;;10.32;3.53;;;;;;;16.68;57.31;101511.75;4979364;28;124435;-70
2023/07/06 03:50:22;;;;;;;7.07;3.40;;;;;;;16.68;57.31;101519.78;4981162;28;109513;-70
2023/07/06 03:52:51;;;;;;;6.22;3.28;;;;;;;16.67;57.32;101515.38;4976007;28;109134;-70
2023/07/06 03:55:21;;;;;;;7.47;3.63;;;;;;;16.66;57.47;101519.00;4960581;28;124388;-70
2023/07/06 03:57:49;;;;;;;8.77;3.28;;;;;;;16.66;57.45;101524.34;4956502;28;123579;-69
2023/07/06 04:00:31;;;;;;;6.78;3.20;;;;;;;16.69;57.31;101524.19;4965086;28;110616;-70
2023/07/06 04:03:06;;;;;;;4.97;3.22;;;;;;;16.69;57.44;101529.53;4965041;28;109584;-70
2023/07/06 04:05:43;;;;;;;6.18;2.95;;;;;;;16.69;57.52;101526.88;4967048;28;123886;-71
2023/07/06 04:08:15;;;;;;;6.68;3.35;;;;;;;16.71;57.52;101532.97;4954802;28;122954;-71
2023/07/06 04:10:42;;;;;;;6.82;3.35;;;;;;;16.74;57.53;101527.44;4973319;28;109093;-70
2023/07/06 04:13:10;;;;;;;8.82;3.42;;;;;;;16.75;57.54;101523.81;4981034;28;108743;-71
2023/07/06 04:15:40;;;;;;;8.00;3.75;;;;;;;16.76;57.74;101525.50;4974208;28;124118;-71
2023/07/06 04:18:10;;;;;;;6.68;3.15;;;;;;;16.75;57.68;101529.16;4981638;28;124548;-71
2023/07/06 04:20:38;;;;;;;8.27;3.38;;;;;;;16.75;57.53;101529.16;4977487;28;109981;-71
2023/07/06 04:23:05;;;;;;;8.65;3.55;;;;;;;16.76;57.65;101530.88;4982568;28;108218;-71
2023/07/06 04:25:34;;;;;;;7.40;3.75;;;;;;;16.76;57.78;101528.19;4968181;28;123758;-71
2023/07/06 04:28:06;;;;;;;7.10;3.65;;;;;;;16.79;57.74;101533.38;4963832;28;123917;-71
2023/07/06 04:30:36;;;;;;;9.07;3.30;;;;;;;16.78;57.72;101539.66;4966259;28;109449;-71
2023/07/06 04:33:06;;;;;;;7.65;3.20;;;;;;;16.78;57.82;101536.97;4960929;28;110402;-71
2023/07/06 04:35:34;;;;;;;6.88;3.33;;;;;;;16.78;57.85;101542.34;4970658;28;123086;-71
2023/07/06 04:38:06;;;;;;;5.97;3.28;;;;;;;16.81;57.84;101544.84;4937656;28;123359;-71
2023/07/06 04:40:34;;;;;;;9.65;3.47;;;;;;;16.81;57.79;101544.84;4957071;28;109072;-71
2023/07/06 04:43:01;;;;;;;8.23;3.30;;;;;;;16.83;57.85;101544.78;4973493;28;107960;-71
2023/07/06 04:45:28;;;;;;;7.38;3.35;;;;;;;16.84;57.84;101542.03;4982911;28;123890;-71
2023/07/06 04:47:57;;;;;;;9.93;4.05;;;;;;;16.86;57.72;101545.47;4969516;28;123983;-71
2023/07/06 04:50:25;;;;;;;7.55;3.33;;;;;;;16.87;57.82;101549.84;4982806;28;110364;-71
2023/07/06 04:52:56;;;;;;;7.93;3.60;;;;;;;16.87;57.78;101552.50;4964041;28;110990;-70
2023/07/06 04:55:26;;;;;;;8.35;3.58;;;;;;;16.89;57.87;101549.75;4972059;28;123951;-69
2023/07/06 04:57:55;;;;;;;9.63;3.72;;;;;;;16.90;57.88;101549.66;4969158;28;124296;-70
2023/07/06 05:00:29;;;;;;;7.57;3.40;;;;;;;16.95;57.94;101556.56;4979989;28;109200;-70
2023/07/06 05:03:00;;;;;;;7.53;3.55;;;;;;;16.99;57.94;101552.72;4967719;28;109191;-70
2023/07/06 05:05:35;;;;;;;7.30;3.58;;;;;;;17.02;57.80;101558.75;4978573;28;124296;-69
2023/07/06 05:08:03;;;;;;;;;;;;;;;17.03;57.64;101565.84;4974379;28;124914;-69
2023/07/06 05:10:30;;;;;;;6.45;3.15;;;;;;;17.08;57.83;101568.22;4969006;28;109638;-71
2023/07/06 05:12:57;;;;;;;7.72;3.80;;;;;;;17.10;57.78;101566.31;4974282;28;109065;-71
2023/07/06 05:15:25;;;;;;;8.02;3.80;;;;;;;17.12;57.95;101564.41;4963246;28;123838;-71
2023/07/06 05:17:53;;;;;;;8.32;4.13;;;;;;;17.18;57.92;101564.06;4975655;28;122816;-71
2023/07/06 05:20:22;;;;;;;8.95;3.88;;;;;;;17.21;58.05;101563.84;4969007;28;109170;-71
2023/07/06 05:22:49;;;;;;;6.80;3.70;;;;;;;17.25;58.19;101560.06;4963899;28;109324;-71
2023/07/06 05:25:18;;;;;;;9.65;4.07;;;;;;;17.29;57.98;101555.34;4978751;28;123278;-71
2023/07/06 05:27:46;;;;;;;8.18;3.90;;;;;;;17.33;58.06;101562.25;4983149;28;124254;-71
2023/07/06 05:30:14;;;;;;;7.90;4.13;;;;;;;17.38;57.94;101559.28;4974862;28;109518;-71
2023/07/06 05:32:42;;;;;;;9.60;3.63;;;;;;;17.40;57.82;101560.03;4990976;28;107946;-71
2023/07/06 05:35:09;;;;;;;12.20;3.88;;;;;;;17.42;57.91;101566.16;4982070;28;124124;-71
2023/07/06 05:37:37;;;;;;;10.52;3.83;;;;;;;17.45;57.99;101560.63;4992247;28;123945;-71
2023/07/06 05:40:06;;;;;;;10.32;4.60;;;;;;;17.48;57.97;101571.16;4982446;28;110044;-71
2023/07/06 05:42:36;;;;;;;7.43;4.10;;;;;;;17.53;58.20;101574.38;4976708;28;109857;-71
2023/07/06 05:45:04;;;;;;;10.60;4.82;;;;;;;17.57;58.20;101570.53;4973383;28;124324;-70
2023/07/06 05:47:32;;;;;;;9.15;4.32;;;;;;;17.64;58.22;101577.25;4985232;28;123908;-71
2023/07/06 05:49:59;;;;;;;9.68;4.90;;;;;;;17.71;58.36;101578.59;4956604;28;109383;-71
2023/07/06 05:52:27;;;;;;;10.55;5.13;;;;;;;17.78;58.34;101578.19;4954991;28;108426;-71
2023/07/06 05:54:55;;;;;;;12.00;5.05;;;;;;;17.84;58.27;101584.06;4972176;28;123200;-71
2023/07/06 05:57:22;;;;;;;15.05;5.53;;;;;;;17.91;58.05;101584.50;4986850;28;124224;-71
2023/07/06 05:59:51;;;;;;;12.00;5.25;;;;;;;17.97;58.02;101592.19;4986905;28;108721;-71
2023/07/06 06:02:21;;;;;;;17.95;6.78;;;;;;;18.01;58.13;101596.38;4989250;28;109336;-70
2023/07/06 06:04:51;;;;;;;17.27;6.38;;;;;;;18.05;58.05;101592.53;4981910;28;124140;-71
2023/07/06 06:07:20;;;;;;;17.65;7.22;;;;;;;18.09;58.14;101599.41;4980414;28;124533;-70
2023/07/06 06:09:47;;;;;;;16.38;7.40;;;;;;;18.14;58.04;101595.56;4974460;28;108143;-70
2023/07/06 06:12:20;;;;;;;19.40;8.15;;;;;;;18.19;58.14;101596.13;4972216;28;108989;-70
2023/07/06 06:14:49;;;;;;;15.13;7.68;;;;;;;18.26;58.17;101594.78;4954882;28;124228;-69
2023/07/06 06:17:18;;;;;;;19.35;7.55;;;;;;;18.35;58.30;101604.06;4957397;28;123411;-71
2023/07/06 06:19:47;;;;;;;17.25;8.05;;;;;;;18.43;58.26;101610.63;4954501;28;109170;-71
2023/07/06 06:22:16;;;;;;;18.42;8.60;;;;;;;18.52;58.30;101606.47;4966097;28;107974;-71
2023/07/06 06:24:44;;;;;;;19.58;8.63;;;;;;;18.59;58.30;101605.13;4963416;28;123485;-71
2023/07/06 06:27:14;;;;;;;21.27;9.82;;;;;;;18.65;58.03;101617.25;4954478;28;123731;-71
2023/07/06 06:29:42;;;;;;;23.40;9.45;;;;;;;18.66;57.73;101608.22;4971541;28;110205;-71
2023/07/06 06:32:10;;;;;;;20.40;9.93;;;;;;;18.68;57.97;101611.66;4985579;28;109866;-71
2023/07/06 06:34:39;;;;;;;21.00;8.95;;;;;;;18.69;57.93;101613.41;4972450;28;125467;-71
2023/07/06 06:37:06;;;;;;;18.23;9.75;;;;;;;18.73;57.81;101614.91;4973288;28;123887;-71
2023/07/06 06:39:37;;;;;;;22.50;10.88;;;;;;;18.79;58.09;101614.50;4988276;28;109503;-71
2023/07/06 06:42:05;;;;;;;20.17;9.93;;;;;;;18.85;57.91;101613.25;4965891;28;110163;-71
2023/07/06 06:44:35;;;;;;;21.92;10.98;;;;;;;18.90;57.87;101621.00;4971131;28;124942;-71
2023/07/06 06:47:04;;;;;;;23.00;10.93;;;;;;;18.91;57.68;101625.38;4977511;28;124209;-72
2023/07/06 06:49:35;;;;;;;23.55;11.02;;;;;;;18.95;57.96;101630.47;4956256;28;109384;-71
2023/07/06 06:52:03;;;;;;;25.80;11.55;;;;;;;18.97;57.76;101633.06;4976366;28;110325;-71
2023/07/06 06:54:32;;;;;;;23.92;11.80;;;;;;;18.98;57.92;101634.75;4970205;28;125690;-71
2023/07/06 06:57:01;;;;;;;28.85;12.00;;;;;;;19.00;57.92;101635.50;4971960;28;123924;-71
2023/07/06 06:59:28;;;;;;;23.23;11.38;;;;;;;19.04;57.79;101642.38;4969449;28;109268;-71
2023/07/06 07:02:01;;;;;;;22.80;11.98;;;;;;;19.07;57.70;101639.50;4963961;28;110366;-71
2023/07/06 07:04:29;;;;;;;26.40;12.25;;;;;;;19.08;57.64;101646.59;4979531;28;123620;-71
2023/07/06 07:06:57;;;;;;;24.88;11.68;;;;;;;19.13;57.91;101644.44;4954622;28;123545;-71
2023/07/06 07:09:26;;;;;;;20.70;11.18;;;;;;;19.22;57.98;101654.56;4961241;28;109622;-71
2023/07/06 07:11:53;;;;;;;22.90;11.10;;;;;;;19.29;57.80;101654.13;4973583;28;108990;-69
2023/07/06 07:14:21;;;;;;;19.20;11.25;;;;;;;19.32;57.38;101654.78;4983845;28;124271;-70
2023/07/06 07:16:49;;;;;;;24.20;11.98;;;;;;;19.34;57.36;101658.22;4960329;28;124266;-70
2023/07/06 07:19:19;;;;;;;21.52;11.75;;;;;;;19.40;57.58;101656.94;4973697;28;110639;-70
2023/07/06 07:21:47;;;;;;;20.63;11.55;;;;;;;19.48;57.78;101654.59;4962694;28;110616;-70
2023/07/06 07:24:16;;;;;;;21.83;11.23;;;;;;;19.56;57.57;101654.91;4983046;28;122443;-71
2023/07/06 07:26:45;;;;;;;21.92;12.60;;;;;;;19.67;57.58;101658.69;4959748;28;125274;-71
2023/07/06 07:29:13;;;;;;;26.80;12.80;;;;;;;19.76;57.58;101658.03;4972167;28;109212;-71
2023/07/06 07:31:41;;;;;;;24.75;13.13;;;;;;;19.87;57.47;101666.19;4974898;28;110314;-71
2023/07/06 07:34:09;;;;;;;27.02;12.65;;;;;;;20.00;57.54;101669.75;4969331;28;124677;-71
2023/07/06 07:36:38;;;;;;;23.55;12.18;;;;;;;20.13;57.44;101666.16;4970492;28;123789;-71
2023/07/06 07:39:05;;;;;;;21.30;12.27;;;;;;;20.23;57.29;101668.09;4972315;28;109094;-71
2023/07/06 07:41:32;;;;;;;21.52;12.18;;;;;;;20.32;57.13;101677.28;4971810;28;110420;-71
2023/07/06 07:44:01;;;;;;;23.08;12.32;;;;;;;20.41;57.01;101670.38;4969598;28;124335;-70
2023/07/06 07:46:29;;;;;;;22.42;12.63;;;;;;;20.52;56.77;101669.59;4991072;28;122993;-70
2023/07/06 07:48:57;;;;;;;20.50;11.45;;;;;;;20.65;56.77;101673.13;4991677;28;109331;-70
2023/07/06 07:51:26;;;;;;;22.77;11.98;;;;;;;20.74;56.68;101671.59;4989648;28;110165;-70
2023/07/06 07:53:55;;;;;;;25.38;11.80;;;;;;;20.86;56.57;101675.19;4970973;28;124107;-70
2023/07/06 07:56:25;;;;;;;22.85;11.52;;;;;;;21.00;56.50;101677.69;4970990;28;124289;-70
2023/07/06 07:58:52;;;;;;;20.05;11.57;;;;;;;21.12;56.20;101675.91;4972004;28;109471;-70
2023/07/06 08:01:24;;;;;;;19.02;10.95;;;;;;;21.21;55.89;101675.22;4992903;28;110195;-70
2023/07/06 08:03:54;;;;;;;19.05;11.02;;;;;;;21.30;55.87;101673.63;4976734;28;124191;-70
2023/07/06 08:06:23;;;;;;;18.95;10.85;;;;;;;21.34;55.49;101675.09;4960188;28;124596;-70
2023/07/06 08:08:50;;;;;;;19.02;10.48;;;;;;;21.39;55.73;101672.91;4971904;28;110049;-70
2023/07/06 08:11:21;;;;;;;21.25;10.73;;;;;;;21.48;55.54;101666.84;4985020;28;110158;-70
2023/07/06 08:13:50;;;;;;;21.25;10.05;;;;;;;21.61;55.62;101676.69;4974473;28;124537;-70
2023/07/06 08:16:19;;;;;;;16.65;9.27;;;;;;;21.72;55.20;101685.63;4974486;28;123901;-70
2023/07/06 08:18:49;;;;;;;19.42;9.73;;;;;;;21.81;54.91;101678.63;4978079;28;109087;-70
2023/07/06 08:21:26;;;;;;;16.73;9.13;;;;;;;21.86;54.83;101687.22;4984382;28;109578;-70
2023/07/06 08:24:13;;;;;;;15.18;9.00;;;;;;;21.91;54.55;101682.31;4974066;28;124131;-70
2023/07/06 08:26:40;;;;;;;17.70;9.23;;;;;;;21.95;54.21;101691.88;4974134;28;124092;-70
2023/07/06 08:29:08;;;;;;;15.65;8.95;;;;;;;21.99;54.29;101691.66;4975604;28;109125;-70
2023/07/06 08:31:35;;;;;;;17.55;8.80;;;;;;;22.04;54.15;101692.13;4977591;28;108978;-70
2023/07/06 08:34:02;;;;;;;13.77;9.02;;;;;;;22.09;53.91;101698.00;4976518;28;124131;-72
2023/07/06 08:36:30;;;;;;;20.42;8.80;;;;;;;22.09;53.85;101698.00;4979340;28;124874;-70
2023/07/06 08:39:00;;;;;;;15.82;8.27;;;;;;;22.15;54.05;101697.50;4985348;28;109589;-70
2023/07/06 08:41:36;;;;;;;11.40;6.90;;;;;;;22.22;53.71;101693.34;4980796;28;109015;-71
2023/07/06 08:44:07;;;;;;;16.75;7.70;;;;;;;22.34;54.02;101694.22;4972792;28;124140;-70
2023/07/06 08:46:38;;;;;;;14.10;7.45;;;;;;;22.48;53.47;101693.09;4987607;28;124008;-70
2023/07/06 08:49:25;;;;;;;30.55;8.52;;;;;;;22.59;53.37;101695.78;4975445;28;109309;-71
2023/07/06 08:52:01;;;;;;;12.85;6.47;;;;;;;22.69;53.15;101702.09;4978323;28;108924;-70
2023/07/06 08:54:31;;;;;;;22.70;7.80;;;;;;;22.78;52.70;101705.06;4974492;28;123332;-70
2023/07/06 08:57:00;;;;;;;11.25;6.20;;;;;;;22.78;52.34;101705.06;4984089;28;123636;-71
2023/07/06 08:59:39;;;;;;;14.95;7.10;;;;;;;22.81;52.37;101699.38;4976148;28;110403;-71
2023/07/06 09:02:22;;;;;;;12.82;6.57;;;;;;;22.93;52.71;101703.75;4976153;28;109332;-70
2023/07/06 09:04:52;;;;;;;12.20;6.35;;;;;;;23.08;52.65;101699.78;4962772;28;124660;-70
2023/07/06 09:07:26;;;;;;;9.15;5.80;;;;;;;23.27;52.44;101706.34;4985899;28;124311;-70
2023/07/06 09:09:55;;;;;;;12.15;5.30;;;;;;;23.41;51.88;101703.31;4974984;28;109263;-70
2023/07/06 09:12:41;;;;;;;11.55;5.35;;;;;;;23.57;51.87;101702.00;4973685;28;109000;-71
2023/07/06 09:15:08;;;;;;;16.75;6.07;;;;;;;23.69;51.58;101711.75;4947316;28;123192;-71
2023/07/06 09:17:45;;;;;;;12.13;5.55;;;;;;;23.78;51.23;101713.63;4975578;28;124635;-70
2023/07/06 09:20:15;;;;;;;10.18;4.95;;;;;;;23.93;50.99;101702.50;4972816;28;109252;-70
2023/07/06 09:22:44;;;;;;;10.25;5.05;;;;;;;24.04;50.99;101710.53;4975652;28;109649;-71
2023/07/06 09:25:15;;;;;;;9.68;4.57;;;;;;;24.14;50.28;101706.00;4970706;28;124419;-72
2023/07/06 09:27:46;;;;;;;9.48;4.40;;;;;;;24.23;49.90;101710.59;4975054;28;122711;-72
2023/07/06 09:30:43;;;;;;;12.05;5.15;;;;;;;24.40;50.30;101711.78;4983347;28;109311;-72
2023/07/06 09:33:13;;;;;;;10.77;4.68;;;;;;;24.55;50.03;101709.56;4975750;28;108876;-72
2023/07/06 09:35:42;;;;;;;8.20;4.22;;;;;;;24.68;50.11;101710.16;4963577;28;122913;-72
2023/07/06 09:38:15;;;;;;;8.80;4.10;;;;;;;24.83;49.07;101712.47;4985132;28;124049;-72
2023/07/06 09:40:43;;;;;;;8.15;4.32;;;;;;;24.94;48.65;101715.06;4975336;28;109594;-72
2023/07/06 09:43:27;;;;;;;7.97;3.78;;;;;;;24.98;48.86;101721.91;4960786;28;109323;-71
2023/07/06 09:45:59;;;;;;;9.18;4.30;;;;;;;25.04;48.71;101710.47;4973331;28;124490;-71
2023/07/06 09:48:29;;;;;;;8.40;4.25;;;;;;;25.11;48.10;101720.75;4979511;28;124246;-71
2023/07/06 09:51:13;;;;;;;10.85;4.72;;;;;;;25.22;48.66;101712.47;4977502;28;109480;-71
2023/07/06 09:53:48;;;;;;;8.95;5.32;;;;;;;25.30;48.04;101723.50;4961928;28;110130;-70
2023/07/06 09:56:16;;;;;;;8.75;4.47;;;;;;;25.33;47.37;101720.47;4942629;28;123402;-71
2023/07/06 09:58:48;;;;;;;11.02;4.18;;;;;;;25.31;46.94;101722.47;4954253;28;124351;-71
2023/07/06 10:01:31;;;;;;;11.25;5.10;;;;;;;25.31;46.90;101724.34;4970022;28;108758;-70
2023/07/06 10:04:37;;;;;;;8.85;4.72;;;;;;;25.33;47.36;101720.47;4970400;28;109293;-70
2023/07/06 10:07:25;;;;;;;8.43;4.65;;;;;;;25.33;46.97;101720.47;4984261;28;124420;-71
2023/07/06 10:10:10;;;;;;;9.60;5.25;;;;;;;25.37;46.79;101719.22;4963607;28;123865;-70
2023/07/06 10:12:47;;;;;;;8.15;4.72;;;;;;;25.42;47.09;101713.34;4991687;28;109492;-71
2023/07/06 10:15:25;;;;;;;9.93;4.32;;;;;;;25.48;46.79;101711.91;4982772;28;109179;-71
2023/07/06 10:18:27;;;;;;;8.38;4.07;;;;;;;25.54;46.54;101716.72;4983797;28;124840;-70
2023/07/06 10:21:09;;;;;;;9.07;3.97;;;;;;;25.51;45.99;101707.03;4950577;28;124558;-71
2023/07/06 10:24:04;;;;;;;8.68;3.80;;;;;;;25.53;46.60;101704.19;4975224;28;110028;-71
2023/07/06 10:26:34;;;;;;;8.60;4.20;;;;;;;25.64;46.73;101704.03;4972160;28;109282;-71
2023/07/06 10:29:11;;;;;;;8.65;4.35;;;;;;;25.70;46.24;101700.72;4952424;28;124203;-71
2023/07/06 10:31:44;;;;;;;8.38;3.85;;;;;;;25.74;45.45;101702.13;4962558;28;123220;-71
2023/07/06 10:34:29;;;;;;;7.97;3.80;;;;;;;25.77;45.55;101701.84;4972762;28;109482;-71
2023/07/06 10:36:56;;;;;;;7.17;4.00;;;;;;;25.82;45.63;101702.25;4974647;28;108234;-71
2023/07/06 10:39:23;;;;;;;10.88;4.07;;;;;;;25.88;45.91;101698.09;4980547;28;123537;-71
2023/07/06 10:42:26;;;;;;;10.55;4.35;;;;;;;25.95;45.35;101698.38;4983129;28;123949;-70
2023/07/06 10:44:58;;;;;;;7.63;3.80;;;;;;;26.03;45.56;101704.78;4971354;28;110571;-71
2023/07/06 10:47:28;;;;;;;7.47;3.22;;;;;;;26.07;45.10;101702.63;4974055;28;110490;-71
2023/07/06 10:50:31;;;;;;;8.10;3.20;;;;;;;26.14;44.46;101703.69;4973253;28;124083;-71
2023/07/06 10:53:17;;;;;;;9.10;3.63;;;;;;;26.23;44.74;101701.97;4972998;28;123934;-71
2023/07/06 10:56:03;;;;;;;5.97;3.13;;;;;;;26.23;43.95;101702.81;4962468;28;109302;-71
2023/07/06 10:58:34;;;;;;;6.18;2.40;;;;;;;26.27;44.16;101694.38;4965377;28;108802;-71
2023/07/06 11:01:09;;;;;;;5.20;2.30;;;;;;;26.28;43.56;101699.66;4973646;28;124137;-71
2023/07/06 11:03:38;;;;;;;6.05;2.60;;;;;;;26.24;43.11;101695.53;4981080;28;124320;-71
2023/07/06 11:06:11;;;;;;;5.60;2.63;;;;;;;26.22;43.48;101703.81;4983069;28;108566;-71
2023/07/06 11:09:03;;;;;;;5.25;2.40;;;;;;;26.28;43.52;101704.25;4956592;28;109788;-71
2023/07/06 11:11:39;;;;;;;5.00;2.42;;;;;;;26.32;43.35;101711.06;4955620;28;124053;-71
2023/07/06 11:14:34;;;;;;;5.47;2.20;;;;;;;26.35;42.73;101702.59;4984898;28;123706;-71
2023/07/06 11:17:26;;;;;;;7.30;2.30;;;;;;;26.43;42.75;101708.16;4978436;28;109074;-71
2023/07/06 11:19:54;;;;;;;4.70;2.17;;;;;;;26.49;42.73;101707.53;4966406;28;108136;-71
2023/07/06 11:22:24;;;;;;;7.78;2.55;;;;;;;26.54;42.31;101705.22;4978025;28;124853;-71
2023/07/06 11:24:59;;;;;;;5.68;2.40;;;;;;;26.59;42.37;101697.47;4975610;28;122656;-72
2023/07/06 11:27:35;;;;;;;5.20;2.08;;;;;;;26.69;42.20;101707.41;4960772;28;109107;-71
2023/07/06 11:30:47;;;;;;;5.15;2.03;;;;;;;26.77;41.83;101710.25;4972990;28;109223;-71
2023/07/06 11:33:44;;;;;;;6.65;2.22;;;;;;;26.88;41.66;101712.75;4969979;28;123112;-70
2023/07/06 11:36:39;;;;;;;3.67;2.05;;;;;;;26.96;41.51;101710.09;4976512;28;124845;-73
2023/07/06 11:39:12;;;;;;;;;;;;;;;26.99;42.68;101709.78;4965427;28;110558;-73